Terminal Aerodrome Forecast
Issued by NWS Kansas City/Pleasant Hill, MO

Home | Current Version | Previous Version | Text Only | Print | Product List | Glossary On
Versions: 1 2 3 4 5 6 7 8 9 10 11 12 13 14
000
FTUS43 KEAX 160500
TAFMCI
TAF
KMCI 160520Z 1606/1706 16017KT P6SM FEW150 WS018/19045KT
     FM161400 19026G37KT P6SM SCT200
     FM162000 20018G28KT P6SM SCT070
     FM170300 33005KT P6SM BKN060=

USA.gov is the U.S. government's official web portal to all federal, state and local government web resources and services.